createdAt,value
2023-01-02T00:01:20.257Z,1.40
2023-01-02T00:03:47.630Z,1.80
2023-01-02T00:06:14.914Z,1.60
2023-01-02T00:08:41.996Z,1.70
2023-01-02T00:11:09.156Z,1.40
2023-01-02T00:13:36.233Z,1.30
2023-01-02T00:16:03.377Z,1.73
2023-01-02T00:18:30.429Z,1.80
2023-01-02T00:21:01.697Z,1.63
2023-01-02T00:23:28.854Z,1.80
2023-01-02T00:25:55.984Z,1.77
2023-01-02T00:28:23.174Z,1.90
2023-01-02T00:30:50.286Z,1.70
2023-01-02T00:33:17.412Z,1.80
2023-01-02T00:35:44.566Z,1.80
2023-01-02T00:38:11.734Z,2.13
2023-01-02T00:40:38.924Z,2.03
2023-01-02T00:43:06.160Z,1.67
2023-01-02T00:45:33.247Z,1.83
2023-01-02T00:48:00.335Z,1.60
2023-01-02T00:50:27.368Z,1.70
2023-01-02T00:52:54.468Z,1.50
2023-01-02T00:55:21.574Z,1.40
2023-01-02T00:57:48.683Z,1.67
2023-01-02T01:00:23.409Z,1.60
2023-01-02T01:02:54.714Z,1.90
2023-01-02T01:05:21.838Z,1.30
2023-01-02T01:07:48.905Z,1.60
2023-01-02T01:10:16.067Z,1.90
2023-01-02T01:12:43.207Z,1.90
2023-01-02T01:15:10.769Z,1.47
2023-01-02T01:17:38.853Z,1.60
2023-01-02T01:20:07.155Z,1.43
2023-01-02T01:22:34.348Z,1.90
2023-01-02T01:25:01.478Z,1.50
2023-01-02T01:27:28.593Z,1.50
2023-01-02T01:29:55.676Z,1.60
2023-01-02T01:32:22.747Z,1.77
2023-01-02T01:34:49.902Z,1.40
2023-01-02T01:37:17.041Z,1.50
2023-01-02T01:39:44.170Z,1.80
2023-01-02T01:42:14.414Z,1.53
2023-01-02T01:44:50.706Z,1.63
2023-01-02T01:47:34.048Z,1.77
2023-01-02T01:50:09.123Z,1.93
2023-01-02T01:52:42.178Z,1.60
2023-01-02T01:55:13.026Z,1.73
2023-01-02T01:57:45.608Z,1.63
2023-01-02T02:00:13.308Z,1.90
2023-01-02T02:02:44.254Z,1.63
2023-01-02T02:05:14.563Z,1.80
2023-01-02T02:07:47.064Z,1.70
2023-01-02T02:10:14.221Z,1.87
2023-01-02T02:12:41.329Z,1.93
2023-01-02T02:15:14.864Z,1.90
2023-01-02T02:17:51.171Z,1.80
2023-01-02T02:20:26.160Z,1.97
2023-01-02T02:22:55.981Z,1.77
2023-01-02T02:25:38.258Z,1.80
2023-01-02T02:28:26.341Z,2.10
2023-01-02T02:31:04.535Z,1.60
2023-01-02T02:33:53.156Z,1.80
2023-01-02T02:36:52.908Z,2.00
2023-01-02T02:39:32.207Z,1.70
2023-01-02T02:42:35.310Z,2.00
2023-01-02T02:45:21.715Z,1.97
2023-01-02T02:48:09.984Z,1.70
2023-01-02T02:50:44.768Z,1.60
2023-01-02T02:53:23.612Z,1.87
2023-01-02T02:55:57.620Z,1.70
2023-01-02T02:58:26.518Z,1.70
2023-01-02T03:01:13.610Z,1.70
2023-01-02T03:03:40.841Z,1.90
2023-01-02T03:06:17.179Z,1.80
2023-01-02T03:09:38.582Z,1.60
2023-01-02T03:12:42.951Z,1.50
2023-01-02T03:15:21.436Z,1.60
2023-01-02T03:18:03.782Z,1.77
2023-01-02T03:20:41.794Z,1.73
2023-01-02T03:23:16.683Z,1.90
2023-01-02T03:25:44.667Z,1.60
2023-01-02T03:28:13.509Z,1.47
2023-01-02T03:30:42.583Z,1.73
2023-01-02T03:33:17.957Z,1.50
2023-01-02T03:35:50.277Z,1.50
2023-01-02T03:38:31.837Z,1.87
2023-01-02T03:41:14.879Z,1.80
2023-01-02T03:43:44.301Z,2.10
2023-01-02T03:46:18.602Z,1.90
2023-01-02T03:49:25.098Z,1.93
2023-01-02T03:51:52.239Z,1.43
2023-01-02T03:54:19.751Z,1.67
2023-01-02T03:56:53.610Z,1.80
2023-01-02T03:59:34.669Z,1.60
2023-01-02T04:02:09.123Z,1.80
2023-01-02T04:04:50.915Z,1.60
2023-01-02T04:07:31.200Z,1.53
2023-01-02T04:10:00.440Z,1.77
2023-01-02T04:12:30.273Z,1.90
2023-01-02T04:15:08.173Z,1.70
2023-01-02T04:17:47.905Z,1.60
2023-01-02T04:20:23.363Z,1.50
2023-01-02T04:23:04.825Z,1.80
2023-01-02T04:25:52.998Z,1.60
2023-01-02T04:28:28.076Z,1.70
2023-01-02T04:31:34.536Z,1.70
2023-01-02T04:34:03.714Z,1.57
2023-01-02T04:36:31.097Z,1.77
2023-01-02T04:38:58.201Z,1.70
2023-01-02T04:41:29.687Z,1.53
2023-01-02T04:43:57.273Z,1.90
2023-01-02T04:46:26.023Z,1.60
2023-01-02T04:48:54.358Z,1.70
2023-01-02T04:51:22.177Z,1.40
2023-01-02T04:53:50.104Z,1.43
2023-01-02T04:56:17.791Z,1.57
2023-01-02T04:58:46.410Z,0.90
2023-01-02T05:01:15.624Z,1.10
2023-01-02T05:03:45.311Z,1.40
2023-01-02T05:06:12.952Z,1.23
2023-01-02T05:08:40.707Z,1.17
2023-01-02T05:11:08.696Z,1.00
2023-01-02T05:13:35.935Z,1.00
2023-01-02T05:16:04.039Z,0.80
2023-01-02T05:18:32.263Z,1.10
2023-01-02T05:21:04.217Z,0.97
2023-01-02T05:23:49.736Z,0.90
2023-01-02T05:26:18.003Z,0.90
2023-01-02T05:28:45.247Z,1.20
2023-01-02T05:31:12.761Z,1.10
2023-01-02T05:33:39.888Z,1.20
2023-01-02T05:36:08.306Z,1.10
2023-01-02T05:38:36.670Z,1.20
2023-01-02T05:41:05.464Z,1.20
2023-01-02T05:43:37.518Z,1.10
2023-01-02T05:46:14.063Z,0.73
2023-01-02T05:48:41.931Z,0.80
2023-01-02T05:51:12.209Z,0.90
2023-01-02T05:53:39.383Z,1.10
2023-01-02T05:56:10.735Z,1.10
2023-01-02T05:58:40.767Z,0.93
2023-01-02T06:01:10.952Z,1.13
2023-01-02T06:03:39.174Z,1.17
2023-01-02T06:06:09.032Z,0.80
2023-01-02T06:08:37.147Z,0.93
2023-01-02T06:11:05.780Z,1.00
2023-01-02T06:13:34.871Z,1.10
2023-01-02T06:16:03.722Z,1.00
2023-01-02T06:18:32.332Z,1.30
2023-01-02T06:21:11.272Z,0.97
2023-01-02T06:23:39.205Z,1.40
2023-01-02T06:26:09.296Z,1.00
2023-01-02T06:28:36.707Z,1.00
2023-01-02T06:31:09.866Z,1.30
2023-01-02T06:33:37.495Z,0.93
2023-01-02T06:36:16.308Z,1.50
2023-01-02T06:38:44.107Z,1.27
2023-01-02T06:41:12.004Z,1.10
2023-01-02T06:43:44.618Z,1.10
2023-01-02T06:46:12.888Z,1.10
2023-01-02T06:48:40.734Z,1.10
2023-01-02T06:51:10.448Z,1.07
2023-01-02T06:53:40.332Z,1.33
2023-01-02T06:56:08.361Z,1.10
2023-01-02T06:58:37.388Z,1.13
2023-01-02T07:01:10.315Z,1.33
2023-01-02T07:03:37.556Z,1.20
2023-01-02T07:06:08.725Z,1.73
2023-01-02T07:08:36.537Z,1.17
2023-01-02T07:11:26.768Z,1.60
2023-01-02T07:13:55.110Z,1.30
2023-01-02T07:16:23.466Z,1.40
2023-01-02T07:18:52.953Z,1.13
2023-01-02T07:21:20.840Z,1.30
2023-01-02T07:23:47.987Z,1.00
2023-01-02T07:26:15.545Z,1.50
2023-01-02T07:28:42.868Z,1.00
2023-01-02T07:31:14.985Z,1.70
2023-01-02T07:33:42.413Z,1.20
2023-01-02T07:36:13.748Z,1.50
2023-01-02T07:38:40.942Z,1.40
2023-01-02T07:41:16.742Z,1.30
2023-01-02T07:43:45.023Z,1.60
2023-01-02T07:46:13.314Z,1.07
2023-01-02T07:48:40.879Z,1.03
2023-01-02T07:51:09.236Z,1.47
2023-01-02T07:53:36.853Z,1.40
2023-01-02T07:56:04.925Z,1.50
2023-01-02T07:58:32.243Z,1.60
2023-01-02T08:01:05.125Z,1.40
2023-01-02T08:03:33.311Z,1.80
2023-01-02T08:06:14.777Z,1.50
2023-01-02T08:08:42.471Z,1.27
2023-01-02T08:11:12.154Z,1.53
2023-01-02T08:13:39.352Z,1.60
2023-01-02T08:16:15.447Z,1.63
2023-01-02T08:18:43.013Z,2.00
2023-01-02T08:21:10.892Z,1.70
2023-01-02T08:23:38.177Z,1.60
2023-01-02T08:26:07.843Z,1.53
2023-01-02T08:28:36.482Z,1.87
2023-01-02T08:31:09.856Z,2.03
2023-01-02T08:33:37.275Z,1.87
2023-01-02T08:36:04.542Z,1.97
2023-01-02T08:38:31.856Z,1.63
2023-01-02T08:40:59.945Z,1.90
2023-01-02T08:43:28.214Z,1.63
2023-01-02T08:45:55.785Z,2.20
2023-01-02T08:48:22.986Z,2.57
2023-01-02T08:50:50.547Z,2.60
2023-01-02T08:53:18.423Z,2.50
2023-01-02T08:55:45.770Z,1.87
2023-01-02T08:58:13.421Z,2.90
2023-01-02T09:00:40.664Z,2.30
2023-01-02T09:03:07.872Z,2.70
2023-01-02T09:05:35.082Z,2.50
2023-01-02T09:08:02.765Z,2.17
2023-01-02T09:10:29.909Z,2.40
2023-01-02T09:12:58.817Z,3.53
2023-01-02T09:15:26.032Z,3.50
2023-01-02T09:17:53.214Z,2.80
2023-01-02T09:20:20.296Z,2.80
2023-01-02T09:22:47.387Z,3.77
2023-01-02T09:25:18.888Z,3.17
2023-01-02T09:27:49.282Z,3.37
2023-01-02T09:30:16.578Z,3.77
2023-01-02T09:32:43.636Z,4.33
2023-01-02T09:35:10.775Z,3.57
2023-01-02T09:37:38.666Z,3.97
2023-01-02T09:40:06.421Z,3.77
2023-01-02T09:42:33.783Z,6.17
2023-01-02T09:45:08.898Z,6.47
2023-01-02T09:47:39.213Z,4.67
2023-01-02T09:50:23.499Z,5.73
2023-01-02T09:52:56.857Z,5.63
2023-01-02T09:55:50.811Z,5.93
2023-01-02T09:58:35.987Z,6.70
2023-01-02T10:01:05.762Z,6.10
2023-01-02T10:03:45.416Z,7.40
2023-01-02T10:06:17.518Z,4.93
2023-01-02T10:08:50.787Z,6.37
2023-01-02T10:11:20.611Z,7.47
2023-01-02T10:16:48.761Z,4.07
2023-01-02T10:19:24.685Z,4.77
2023-01-02T10:21:54.645Z,7.87
2023-01-02T10:24:40.785Z,9.23
2023-01-02T10:27:13.806Z,5.10
2023-01-02T10:30:01.776Z,5.17
2023-01-02T10:32:32.546Z,5.83
2023-01-02T10:35:14.901Z,4.73
2023-01-02T10:37:42.247Z,5.03
2023-01-02T10:40:09.917Z,6.10
2023-01-02T10:42:37.124Z,6.73
2023-01-02T10:45:04.749Z,4.10
2023-01-02T10:47:37.873Z,4.50
2023-01-02T10:50:19.125Z,4.43
2023-01-02T10:52:50.883Z,4.50
2023-01-02T10:55:37.561Z,4.00
2023-01-02T10:58:25.836Z,9.87
2023-01-02T11:01:07.531Z,5.07
2023-01-02T11:03:37.548Z,7.37
2023-01-02T11:06:28.235Z,4.20
2023-01-02T11:09:08.514Z,5.00
2023-01-02T11:11:38.237Z,7.10
2023-01-02T11:14:14.070Z,5.80
2023-01-02T11:16:45.486Z,4.50
2023-01-02T11:19:29.782Z,5.03
2023-01-02T11:22:02.738Z,5.53
2023-01-02T11:24:33.093Z,5.27
2023-01-02T11:27:04.198Z,4.43
2023-01-02T11:29:35.030Z,5.80
2023-01-02T11:32:06.698Z,4.50
2023-01-02T11:34:41.877Z,4.47
2023-01-02T11:37:16.389Z,4.73
2023-01-02T11:40:00.366Z,4.70
2023-01-02T11:43:06.781Z,8.77
2023-01-02T11:45:41.363Z,4.40
2023-01-02T11:48:18.461Z,6.73
2023-01-02T11:50:50.793Z,5.30
2023-01-02T11:53:30.800Z,9.73
2023-01-02T11:56:19.727Z,6.33
2023-01-02T11:59:02.930Z,5.50
2023-01-02T12:01:47.045Z,6.37
2023-01-02T12:04:24.868Z,5.10
2023-01-02T12:07:15.670Z,4.50
2023-01-02T12:09:49.811Z,4.23
2023-01-02T12:12:42.943Z,4.50
2023-01-02T12:15:30.728Z,4.30
2023-01-02T12:18:19.629Z,3.63
2023-01-02T12:21:20.698Z,4.30
2023-01-02T12:24:06.299Z,4.10
2023-01-02T12:27:01.531Z,3.60
2023-01-02T12:30:12.585Z,5.50
2023-01-02T12:33:09.638Z,4.73
2023-01-02T12:35:57.488Z,4.50
2023-01-02T12:38:50.000Z,4.37
2023-01-02T12:42:00.579Z,4.30
2023-01-02T12:44:44.659Z,5.87
2023-01-02T12:47:57.814Z,4.93
2023-01-02T12:50:55.983Z,4.80
2023-01-02T12:53:44.001Z,4.07
2023-01-02T12:56:27.015Z,8.47
2023-01-02T12:59:23.922Z,3.93
2023-01-02T13:02:10.676Z,4.30
2023-01-02T13:04:57.622Z,3.37
2023-01-02T13:07:32.236Z,4.57
2023-01-02T13:10:03.539Z,3.63
2023-01-02T13:12:32.835Z,4.90
2023-01-02T13:15:04.033Z,5.30
2023-01-02T13:17:43.606Z,2.83
2023-01-02T13:20:34.061Z,3.90
2023-01-02T13:23:23.413Z,9.70
2023-01-02T13:25:58.500Z,4.03
2023-01-02T13:28:25.837Z,4.70
2023-01-02T13:31:19.096Z,9.63
2023-01-02T13:33:48.518Z,9.47
2023-01-02T13:36:21.872Z,10.43
2023-01-02T13:38:56.455Z,6.20
2023-01-02T13:41:25.148Z,6.47
2023-01-02T13:44:03.042Z,4.90
2023-01-02T13:47:02.953Z,5.07
2023-01-02T13:49:24.251Z,5.17
2023-01-02T13:51:59.971Z,3.43
2023-01-02T13:54:36.686Z,3.40
2023-01-02T13:57:27.093Z,5.70
2023-01-02T14:00:29.220Z,4.30
2023-01-02T14:03:21.313Z,3.50
2023-01-02T14:06:00.802Z,4.20
2023-01-02T14:08:39.505Z,9.97
2023-01-02T14:11:08.019Z,5.50
2023-01-02T14:13:42.371Z,5.83
2023-01-02T14:16:39.213Z,4.97
2023-01-02T14:19:06.338Z,4.70
2023-01-02T14:21:58.680Z,5.50
2023-01-02T14:24:31.614Z,5.57
2023-01-02T14:27:15.911Z,7.73
2023-01-02T14:29:53.811Z,4.87
2023-01-02T14:32:36.142Z,4.60
2023-01-02T14:35:22.537Z,3.87
2023-01-02T14:37:55.427Z,4.73
2023-01-02T14:40:22.570Z,5.63
2023-01-02T14:43:13.943Z,4.50
2023-01-02T14:45:45.609Z,3.70
2023-01-02T14:48:18.275Z,5.10
2023-01-02T14:50:48.311Z,4.10
2023-01-02T14:53:23.988Z,4.03
2023-01-02T14:55:56.590Z,7.13
2023-01-02T14:58:44.307Z,7.47
2023-01-02T15:01:41.761Z,6.43
2023-01-02T15:04:21.584Z,4.03
2023-01-02T15:07:23.507Z,4.10
2023-01-02T15:09:55.542Z,3.33
2023-01-02T15:12:44.342Z,5.33
2023-01-02T15:15:13.788Z,4.07
2023-01-02T15:17:41.448Z,6.67
2023-01-02T15:20:09.751Z,5.30
2023-01-02T15:22:37.892Z,3.20
2023-01-02T15:25:05.856Z,2.50
2023-01-02T15:27:34.243Z,3.17
2023-01-02T15:30:40.314Z,2.70
2023-01-02T15:33:30.636Z,3.10
2023-01-02T15:36:33.036Z,4.20
2023-01-02T15:39:11.999Z,2.97
2023-01-02T15:41:49.315Z,2.53
2023-01-02T15:44:43.459Z,2.43
2023-01-02T15:47:11.658Z,5.07
2023-01-02T15:49:41.506Z,4.07
2023-01-02T15:52:22.058Z,3.10
2023-01-02T15:54:50.821Z,4.50
2023-01-02T15:57:19.203Z,6.40
2023-01-02T15:59:47.608Z,6.73
2023-01-02T16:02:40.941Z,3.43
2023-01-02T16:05:19.145Z,4.20
2023-01-02T16:07:59.827Z,3.20
2023-01-02T16:10:29.896Z,3.87
2023-01-02T16:13:25.733Z,2.60
2023-01-02T16:16:15.560Z,2.73
2023-01-02T16:18:47.892Z,3.33
2023-01-02T16:21:17.235Z,4.30
2023-01-02T16:23:52.924Z,2.83
2023-01-02T16:26:21.830Z,4.77
2023-01-02T16:28:51.326Z,4.60
2023-01-02T16:31:21.471Z,3.20
2023-01-02T16:33:48.925Z,2.90
2023-01-02T16:36:16.036Z,1.93
2023-01-02T16:39:02.528Z,1.37
2023-01-02T16:41:37.305Z,2.10
2023-01-02T16:44:15.699Z,1.67
2023-01-02T16:46:46.963Z,1.20
2023-01-02T16:49:22.877Z,1.77
2023-01-02T16:51:54.525Z,2.10
2023-01-02T16:54:21.822Z,1.10
2023-01-02T16:56:49.997Z,1.97
2023-01-02T16:59:17.782Z,1.90
2023-01-02T17:01:45.017Z,1.63
2023-01-02T17:04:15.868Z,1.30
2023-01-02T17:06:43.294Z,2.20
2023-01-02T17:09:10.390Z,1.10
2023-01-02T17:11:58.541Z,1.60
2023-01-02T17:14:27.231Z,1.90
2023-01-02T17:16:54.521Z,1.47
2023-01-02T17:19:22.060Z,1.70
2023-01-02T17:21:50.032Z,1.43
2023-01-02T17:24:18.096Z,1.57
2023-01-02T17:26:45.528Z,1.20
2023-01-02T17:29:12.835Z,0.90
2023-01-02T17:31:40.013Z,1.17
2023-01-02T17:34:07.491Z,0.83
2023-01-02T17:36:34.615Z,1.10
2023-01-02T17:39:01.766Z,0.83
2023-01-02T17:41:28.922Z,0.80
2023-01-02T17:44:02.432Z,0.73
2023-01-02T17:47:09.125Z,0.70
2023-01-02T17:49:21.082Z,0.70
2023-01-02T17:51:48.385Z,0.67
2023-01-02T17:54:15.495Z,0.87
2023-01-02T17:56:42.571Z,0.90
2023-01-02T17:59:09.951Z,0.90
2023-01-02T18:01:37.659Z,0.63
2023-01-02T18:04:05.484Z,0.70
2023-01-02T18:06:33.451Z,0.70
2023-01-02T18:09:00.480Z,0.83
2023-01-02T18:11:27.687Z,0.77
2023-01-02T18:13:55.967Z,0.80
2023-01-02T18:16:37.592Z,1.00
2023-01-02T18:19:10.751Z,0.50
2023-01-02T18:21:37.854Z,0.50
2023-01-02T18:24:15.206Z,0.50
2023-01-02T18:26:42.942Z,0.60
2023-01-02T18:29:22.260Z,0.30
2023-01-02T18:31:51.420Z,0.97
2023-01-02T18:37:26.291Z,0.80
2023-01-02T18:39:55.226Z,0.73
2023-01-02T18:42:33.635Z,1.20
2023-01-02T18:45:01.393Z,0.70
2023-01-02T18:47:35.136Z,0.73
2023-01-02T18:50:33.518Z,0.80
2023-01-02T18:53:15.771Z,0.90
2023-01-02T18:55:43.341Z,0.60
2023-01-02T18:58:42.523Z,0.67
2023-01-02T19:01:25.381Z,0.70
2023-01-02T19:04:00.429Z,0.70
2023-01-02T19:06:30.071Z,0.63
2023-01-02T19:09:09.449Z,0.57
2023-01-02T19:11:56.090Z,0.60
2023-01-02T19:14:27.676Z,0.50
2023-01-02T19:17:25.542Z,0.50
2023-01-02T19:19:56.896Z,0.90
2023-01-02T19:22:33.237Z,0.70
2023-01-02T19:25:10.636Z,0.83
2023-01-02T19:27:39.750Z,0.80
2023-01-02T19:30:31.176Z,0.40
2023-01-02T19:33:00.673Z,0.53
2023-01-02T19:35:39.671Z,0.43
2023-01-02T19:38:28.362Z,0.60
2023-01-02T19:40:57.945Z,0.70
2023-01-02T19:43:26.867Z,0.60
2023-01-02T19:45:56.632Z,0.53
2023-01-02T19:48:25.094Z,0.93
2023-01-02T19:50:54.252Z,0.63
2023-01-02T19:53:24.939Z,0.70
2023-01-02T19:55:54.012Z,0.90
2023-01-02T19:58:24.849Z,0.67
2023-01-02T20:00:53.539Z,0.87
2023-01-02T20:03:23.670Z,0.87
2023-01-02T20:05:53.906Z,0.87
2023-01-02T20:08:23.752Z,0.90
2023-01-02T20:10:57.031Z,0.80
2023-01-02T20:13:25.002Z,1.00
2023-01-02T20:15:53.547Z,0.93
2023-01-02T20:18:21.814Z,1.10
2023-01-02T20:20:49.296Z,1.10
2023-01-02T20:23:16.446Z,0.87
2023-01-02T20:25:45.685Z,0.90
2023-01-02T20:28:12.970Z,0.90
2023-01-02T20:30:40.142Z,0.83
2023-01-02T20:33:07.389Z,0.90
2023-01-02T20:35:34.563Z,0.90
2023-01-02T20:38:01.748Z,0.93
2023-01-02T20:40:29.033Z,1.00
2023-01-02T20:42:56.273Z,0.80
2023-01-02T20:45:23.622Z,1.03
2023-01-02T20:47:50.897Z,0.90
2023-01-02T20:50:18.316Z,1.40
2023-01-02T20:52:45.438Z,1.30
2023-01-02T20:55:13.067Z,1.20
2023-01-02T20:57:40.503Z,1.10
2023-01-02T21:00:11.511Z,0.90
2023-01-02T21:02:38.947Z,0.93
2023-01-02T21:05:06.428Z,0.80
2023-01-02T21:07:33.631Z,0.80
2023-01-02T21:10:01.224Z,1.10
2023-01-02T21:12:46.925Z,0.87
2023-01-02T21:15:34.242Z,0.77
2023-01-02T21:18:01.753Z,1.03
2023-01-02T21:20:28.956Z,1.00
2023-01-02T21:22:56.082Z,0.93
2023-01-02T21:25:23.361Z,1.10
2023-01-02T21:27:50.659Z,0.80
2023-01-02T21:30:18.004Z,0.80
2023-01-02T21:32:45.128Z,1.00
2023-01-02T21:35:12.442Z,0.63
2023-01-02T21:37:39.696Z,0.77
2023-01-02T21:40:07.321Z,0.87
2023-01-02T21:42:39.269Z,0.90
2023-01-02T21:45:10.211Z,0.83
2023-01-02T21:47:38.391Z,0.70
2023-01-02T21:50:06.251Z,0.80
2023-01-02T21:52:33.639Z,0.80
2023-01-02T21:55:00.936Z,0.93
2023-01-02T21:58:02.712Z,1.20
2023-01-02T22:00:20.223Z,0.90
2023-01-02T22:02:47.610Z,1.00
2023-01-02T22:05:16.452Z,1.23
2023-01-02T22:07:44.003Z,1.20
2023-01-02T22:10:13.462Z,1.10
2023-01-02T22:12:40.963Z,1.37
2023-01-02T22:15:10.014Z,1.23
2023-01-02T22:17:37.174Z,1.40
2023-01-02T22:20:04.590Z,1.33
2023-01-02T22:22:31.726Z,1.30
2023-01-02T22:24:58.920Z,1.43
2023-01-02T22:27:26.228Z,1.30
2023-01-02T22:32:44.704Z,1.10
2023-01-02T22:35:11.939Z,1.30
2023-01-02T22:37:39.000Z,1.00
2023-01-02T22:40:06.427Z,1.13
2023-01-02T22:43:10.116Z,1.17
2023-01-02T22:45:45.230Z,1.30
2023-01-02T22:48:26.710Z,1.00
2023-01-02T22:50:57.425Z,1.00
2023-01-02T22:53:35.882Z,1.27
2023-01-02T22:56:19.597Z,1.13
2023-01-02T22:58:47.779Z,1.00
2023-01-02T23:01:23.129Z,1.07
2023-01-02T23:03:50.785Z,1.10
2023-01-02T23:06:22.148Z,1.00
2023-01-02T23:08:50.473Z,1.00
2023-01-02T23:11:18.186Z,1.50
2023-01-02T23:13:50.157Z,1.10
2023-01-02T23:16:39.037Z,1.40
2023-01-02T23:19:15.382Z,1.03
2023-01-02T23:21:46.245Z,1.00
2023-01-02T23:24:16.052Z,1.10
2023-01-02T23:26:51.711Z,1.30
2023-01-02T23:29:20.805Z,1.00
2023-01-02T23:31:50.191Z,1.00
2023-01-02T23:34:20.344Z,0.83
2023-01-02T23:36:47.589Z,1.03
2023-01-02T23:39:17.012Z,1.00
2023-01-02T23:41:45.869Z,0.90
2023-01-02T23:44:14.602Z,1.10
2023-01-02T23:46:42.235Z,0.97
2023-01-02T23:49:10.805Z,0.77
2023-01-02T23:51:39.633Z,0.80
2023-01-02T23:54:07.361Z,0.80
2023-01-02T23:56:36.758Z,0.80
2023-01-02T23:59:07.838Z,0.80
